createdAt,value
2023-12-30T00:01:32.831Z,100009.41
2023-12-30T00:04:02.878Z,100009.91
2023-12-30T00:06:30.165Z,100011.09
2023-12-30T00:08:57.199Z,100008.41
2023-12-30T00:11:24.271Z,100007.19
2023-12-30T00:13:51.408Z,100020.84
2023-12-30T00:16:18.728Z,100013.25
2023-12-30T00:18:46.274Z,100022.69
2023-12-30T00:21:20.134Z,100019.72
2023-12-30T00:23:47.637Z,100030.69
2023-12-30T00:26:24.901Z,100013.06
2023-12-30T00:28:53.094Z,100018.00
2023-12-30T00:31:31.240Z,100010.06
2023-12-30T00:34:02.619Z,100004.56
2023-12-30T00:36:32.513Z,100016.25
2023-12-30T00:38:59.690Z,100016.72
2023-12-30T00:41:30.133Z,100015.34
2023-12-30T00:43:57.464Z,100015.09
2023-12-30T00:46:24.477Z,100021.72
2023-12-30T00:48:57.863Z,100018.06
2023-12-30T00:51:25.599Z,100015.59
2023-12-30T00:53:55.597Z,100030.59
2023-12-30T00:56:25.086Z,100035.69
2023-12-30T00:58:54.364Z,100034.53
2023-12-30T01:01:21.625Z,100032.34
2023-12-30T01:03:48.867Z,100025.25
2023-12-30T01:06:16.242Z,100035.03
2023-12-30T01:08:43.177Z,100025.06
2023-12-30T01:11:15.853Z,100037.00
2023-12-30T01:13:42.989Z,100032.22
2023-12-30T01:16:12.957Z,100037.66
2023-12-30T01:18:42.069Z,100049.59
2023-12-30T01:21:09.414Z,100047.63
2023-12-30T01:23:39.461Z,100034.88
2023-12-30T01:26:06.636Z,100032.63
2023-12-30T01:28:36.865Z,100036.19
2023-12-30T01:31:07.137Z,100038.72
2023-12-30T01:33:38.941Z,100034.72
2023-12-30T01:36:08.782Z,100035.72
2023-12-30T01:38:38.396Z,100046.84
2023-12-30T01:41:07.977Z,100046.03
2023-12-30T01:43:38.370Z,100056.22
2023-12-30T01:46:11.695Z,100047.44
2023-12-30T01:48:41.816Z,100053.16
2023-12-30T01:51:23.786Z,100048.13
2023-12-30T01:53:54.316Z,100045.78
2023-12-30T01:56:24.083Z,100053.38
2023-12-30T01:58:53.001Z,100057.91
2023-12-30T02:01:24.918Z,100046.88
2023-12-30T02:03:54.716Z,100060.09
2023-12-30T02:06:22.422Z,100053.41
2023-12-30T02:08:49.731Z,100072.06
2023-12-30T02:11:17.095Z,100067.25
2023-12-30T02:13:45.288Z,100063.28
2023-12-30T02:16:14.801Z,100067.69
2023-12-30T02:18:48.963Z,100068.69
2023-12-30T02:21:16.363Z,100074.28
2023-12-30T02:23:52.300Z,100082.00
2023-12-30T02:26:22.319Z,100071.88
2023-12-30T02:28:51.940Z,100083.19
2023-12-30T02:31:21.240Z,100088.75
2023-12-30T02:33:48.602Z,100094.13
2023-12-30T02:36:20.719Z,100084.78
2023-12-30T02:38:49.018Z,100086.09
2023-12-30T02:41:18.472Z,100097.31
2023-12-30T02:43:58.913Z,100100.69
2023-12-30T02:46:26.292Z,100102.13
2023-12-30T02:48:53.538Z,100106.41
2023-12-30T02:51:21.562Z,100112.38
2023-12-30T02:53:51.183Z,100117.97
2023-12-30T02:56:23.954Z,100110.84
2023-12-30T02:58:58.285Z,100113.66
2023-12-30T03:01:33.867Z,100116.84
2023-12-30T03:04:02.626Z,100110.75
2023-12-30T03:06:34.548Z,100125.66
2023-12-30T03:09:01.653Z,100118.25
2023-12-30T03:11:28.985Z,100118.91
2023-12-30T03:13:56.253Z,100119.97
2023-12-30T03:16:23.400Z,100119.44
2023-12-30T03:18:50.629Z,100129.09
2023-12-30T03:21:19.493Z,100127.16
2023-12-30T03:23:48.900Z,100123.63
2023-12-30T03:26:16.096Z,100130.94
2023-12-30T03:28:44.936Z,100140.03
2023-12-30T03:31:25.246Z,100139.19
2023-12-30T03:33:52.778Z,100140.53
2023-12-30T03:36:24.367Z,100145.72
2023-12-30T03:38:56.114Z,100149.56
2023-12-30T03:41:23.248Z,100146.03
2023-12-30T03:43:50.668Z,100151.66
2023-12-30T03:46:20.312Z,100158.13
2023-12-30T03:48:49.776Z,100168.53
2023-12-30T03:51:17.171Z,100166.25
2023-12-30T03:53:44.255Z,100178.16
2023-12-30T03:56:13.250Z,100171.13
2023-12-30T03:58:40.534Z,100182.22
2023-12-30T04:01:07.887Z,100170.22
2023-12-30T04:03:35.681Z,100168.75
2023-12-30T04:06:05.671Z,100167.75
2023-12-30T04:08:40.316Z,100177.38
2023-12-30T04:11:07.439Z,100172.03
2023-12-30T04:13:36.794Z,100177.94
2023-12-30T04:16:08.163Z,100181.91
2023-12-30T04:18:35.740Z,100185.69
2023-12-30T04:21:02.902Z,100190.88
2023-12-30T04:23:29.998Z,100190.25
2023-12-30T04:26:01.722Z,100192.34
2023-12-30T04:28:31.833Z,100191.00
2023-12-30T04:30:59.202Z,100196.72
2023-12-30T04:33:30.966Z,100196.06
2023-12-30T04:36:02.549Z,100205.22
2023-12-30T04:38:29.782Z,100196.66
2023-12-30T04:40:57.681Z,100190.03
2023-12-30T04:43:27.142Z,100189.63
2023-12-30T04:45:54.195Z,100193.94
2023-12-30T04:48:21.472Z,100194.19
2023-12-30T04:50:48.597Z,100194.47
2023-12-30T04:53:15.744Z,100203.16
2023-12-30T04:55:45.093Z,100203.88
2023-12-30T04:58:22.217Z,100206.53
2023-12-30T05:00:49.495Z,100222.19
2023-12-30T05:03:17.957Z,100219.47
2023-12-30T05:05:45.602Z,100206.75
2023-12-30T05:08:12.821Z,100223.03
2023-12-30T05:10:40.096Z,100217.03
2023-12-30T05:13:07.503Z,100210.91
2023-12-30T05:15:34.953Z,100215.50
2023-12-30T05:18:02.321Z,100215.88
2023-12-30T05:20:29.657Z,100225.84
2023-12-30T05:23:02.004Z,100216.03
2023-12-30T05:25:32.173Z,100230.19
2023-12-30T05:28:01.484Z,100229.25
2023-12-30T05:30:30.125Z,100233.06
2023-12-30T05:33:06.159Z,100232.53
2023-12-30T05:35:36.757Z,100244.03
2023-12-30T05:38:06.859Z,100241.13
2023-12-30T05:40:38.689Z,100232.91
2023-12-30T05:43:07.973Z,100251.25
2023-12-30T05:45:53.592Z,100252.94
2023-12-30T05:48:20.796Z,100251.88
2023-12-30T05:50:57.091Z,100253.38
2023-12-30T05:53:52.387Z,100251.00
2023-12-30T05:56:28.425Z,100250.34
2023-12-30T05:58:56.374Z,100264.00
2023-12-30T06:01:26.628Z,100265.94
2023-12-30T06:04:16.694Z,100269.13
2023-12-30T06:06:46.784Z,100274.41
2023-12-30T06:09:25.234Z,100272.75
2023-12-30T06:11:52.487Z,100269.41
2023-12-30T06:14:19.540Z,100276.59
2023-12-30T06:16:48.885Z,100273.34
2023-12-30T06:19:34.045Z,100281.91
2023-12-30T06:22:01.519Z,100281.91
2023-12-30T06:24:28.675Z,100275.19
2023-12-30T06:26:55.806Z,100289.97
2023-12-30T06:29:28.109Z,100288.41
2023-12-30T06:31:56.435Z,100289.16
2023-12-30T06:34:28.213Z,100297.19
2023-12-30T06:37:00.408Z,100301.72
2023-12-30T06:39:29.650Z,100312.00
2023-12-30T06:42:01.645Z,100310.09
2023-12-30T06:44:29.098Z,100306.34
2023-12-30T06:46:56.170Z,100317.88
2023-12-30T06:49:23.398Z,100318.94
2023-12-30T06:51:57.423Z,100313.31
2023-12-30T06:54:24.704Z,100321.78
2023-12-30T06:56:55.100Z,100336.06
2023-12-30T06:59:26.864Z,100328.41
2023-12-30T07:01:56.157Z,100339.66
2023-12-30T07:04:26.610Z,100324.28
2023-12-30T07:06:54.821Z,100332.78
2023-12-30T07:09:21.912Z,100337.81
2023-12-30T07:11:51.805Z,100342.50
2023-12-30T07:14:21.277Z,100347.69
2023-12-30T07:16:51.716Z,100353.81
2023-12-30T07:19:18.985Z,100338.97
2023-12-30T07:21:46.381Z,100351.66
2023-12-30T07:24:13.505Z,100357.53
2023-12-30T07:26:40.607Z,100370.63
2023-12-30T07:29:13.567Z,100375.31
2023-12-30T07:31:43.048Z,100385.13
2023-12-30T07:34:10.164Z,100394.78
2023-12-30T07:36:37.689Z,100387.81
2023-12-30T07:39:07.902Z,100384.56
2023-12-30T07:41:38.543Z,100386.47
2023-12-30T07:44:08.012Z,100392.00
2023-12-30T07:46:38.089Z,100397.75
2023-12-30T07:49:05.657Z,100398.81
2023-12-30T07:51:35.261Z,100400.34
2023-12-30T07:54:02.458Z,100401.88
2023-12-30T07:56:31.642Z,100393.97
2023-12-30T07:58:58.735Z,100395.72
2023-12-30T08:01:25.822Z,100403.56
2023-12-30T08:03:57.671Z,100416.53
2023-12-30T08:06:27.028Z,100402.34
2023-12-30T08:08:54.395Z,100410.75
2023-12-30T08:11:23.993Z,100417.69
2023-12-30T08:13:54.001Z,100417.41
2023-12-30T08:16:21.277Z,100413.84
2023-12-30T08:18:53.095Z,100425.81
2023-12-30T08:21:20.592Z,100424.72
2023-12-30T08:23:47.618Z,100427.75
2023-12-30T08:26:17.155Z,100426.03
2023-12-30T08:28:44.267Z,100429.16
2023-12-30T08:31:11.442Z,100438.38
2023-12-30T08:33:38.731Z,100448.25
2023-12-30T08:36:05.988Z,100441.22
2023-12-30T08:38:33.222Z,100445.94
2023-12-30T08:41:01.055Z,100439.44
2023-12-30T08:43:28.394Z,100448.00
2023-12-30T08:45:55.559Z,100446.72
2023-12-30T08:48:25.837Z,100450.09
2023-12-30T08:50:53.166Z,100454.91
2023-12-30T08:53:26.454Z,100465.22
2023-12-30T08:55:54.146Z,100463.25
2023-12-30T08:58:25.293Z,100467.91
2023-12-30T09:00:54.563Z,100456.59
2023-12-30T09:03:24.397Z,100473.00
2023-12-30T09:05:51.823Z,100478.84
2023-12-30T09:08:19.989Z,100488.59
2023-12-30T09:10:47.209Z,100496.59
2023-12-30T09:13:14.327Z,100496.47
2023-12-30T09:15:41.424Z,100515.44
2023-12-30T09:18:10.189Z,100515.81
2023-12-30T09:20:38.317Z,100510.84
2023-12-30T09:23:05.739Z,100515.19
2023-12-30T09:25:35.546Z,100521.47
2023-12-30T09:28:02.808Z,100528.00
2023-12-30T09:30:31.916Z,100545.28
2023-12-30T09:32:59.210Z,100532.28
2023-12-30T09:35:29.182Z,100535.09
2023-12-30T09:37:56.276Z,100538.69
2023-12-30T09:40:28.185Z,100550.63
2023-12-30T09:43:05.089Z,100553.28
2023-12-30T09:45:40.114Z,100556.28
2023-12-30T09:48:13.383Z,100547.63
2023-12-30T09:50:43.341Z,100558.22
2023-12-30T09:53:13.041Z,100557.69
2023-12-30T09:55:42.456Z,100553.56
2023-12-30T09:58:10.108Z,100559.88
2023-12-30T10:00:43.692Z,100559.56
2023-12-30T10:03:12.302Z,100569.56
2023-12-30T10:05:42.527Z,100581.84
2023-12-30T10:08:13.448Z,100585.59
2023-12-30T10:10:50.168Z,100578.34
2023-12-30T10:13:20.191Z,100599.06
2023-12-30T10:15:47.249Z,100592.31
2023-12-30T10:18:16.597Z,100588.22
2023-12-30T10:20:48.178Z,100588.72
2023-12-30T10:23:17.905Z,100597.59
2023-12-30T10:25:46.723Z,100593.41
2023-12-30T10:28:14.249Z,100592.22
2023-12-30T10:30:46.588Z,100579.19
2023-12-30T10:33:16.191Z,100574.75
2023-12-30T10:35:44.940Z,100588.47
2023-12-30T10:38:15.337Z,100580.69
2023-12-30T10:40:46.137Z,100591.00
2023-12-30T10:43:15.899Z,100579.94
2023-12-30T10:45:43.348Z,100580.16
2023-12-30T10:48:13.285Z,100580.38
2023-12-30T10:50:42.432Z,100583.53
2023-12-30T10:53:45.749Z,100582.09
2023-12-30T10:56:17.725Z,100583.69
2023-12-30T10:58:48.074Z,100582.88
2023-12-30T11:01:15.477Z,100577.56
2023-12-30T11:03:43.371Z,100586.50
2023-12-30T11:06:30.204Z,100576.47
2023-12-30T11:09:07.868Z,100585.53
2023-12-30T11:11:34.918Z,100576.28
2023-12-30T11:14:13.141Z,100584.41
2023-12-30T11:16:41.390Z,100566.63
2023-12-30T11:19:11.223Z,100588.63
2023-12-30T11:21:47.870Z,100578.09
2023-12-30T11:24:18.839Z,100586.81
2023-12-30T11:26:47.650Z,100582.72
2023-12-30T11:29:30.032Z,100587.31
2023-12-30T11:32:00.247Z,100585.34
2023-12-30T11:34:30.454Z,100593.53
2023-12-30T11:37:02.152Z,100591.25
2023-12-30T11:39:32.452Z,100595.06
2023-12-30T11:42:00.792Z,100591.84
2023-12-30T11:44:33.454Z,100588.44
2023-12-30T11:47:02.982Z,100581.16
2023-12-30T11:49:32.918Z,100584.22
2023-12-30T11:52:05.193Z,100592.63
2023-12-30T11:54:36.837Z,100587.91
2023-12-30T11:57:08.470Z,100599.13
2023-12-30T11:59:38.419Z,100584.44
2023-12-30T12:02:10.408Z,100592.88
2023-12-30T12:04:37.767Z,100591.72
2023-12-30T12:07:08.517Z,100597.28
2023-12-30T12:09:35.720Z,100594.88
2023-12-30T12:12:02.972Z,100606.38
2023-12-30T12:14:30.691Z,100603.56
2023-12-30T12:17:11.642Z,100603.72
2023-12-30T12:19:39.289Z,100608.66
2023-12-30T12:22:06.723Z,100615.06
2023-12-30T12:24:33.865Z,100619.88
2023-12-30T12:27:00.899Z,100611.59
2023-12-30T12:29:28.081Z,100610.75
2023-12-30T12:31:59.947Z,100613.81
2023-12-30T12:34:29.481Z,100616.47
2023-12-30T12:36:56.799Z,100621.75
2023-12-30T12:39:25.843Z,100614.91
2023-12-30T12:41:52.908Z,100622.59
2023-12-30T12:44:22.367Z,100618.06
2023-12-30T12:46:52.284Z,100614.28
2023-12-30T12:49:22.130Z,100621.09
2023-12-30T12:51:51.978Z,100621.81
2023-12-30T12:54:19.323Z,100624.47
2023-12-30T12:56:48.963Z,100610.41
2023-12-30T12:59:16.365Z,100627.91
2023-12-30T13:01:45.875Z,100627.72
2023-12-30T13:04:16.773Z,100621.38
2023-12-30T13:06:44.173Z,100617.94
2023-12-30T13:09:31.384Z,100621.56
2023-12-30T13:12:00.236Z,100632.31
2023-12-30T13:14:32.544Z,100631.66
2023-12-30T13:17:01.812Z,100637.22
2023-12-30T13:19:34.021Z,100633.72
2023-12-30T13:22:01.202Z,100635.06
2023-12-30T13:24:28.936Z,100631.59
2023-12-30T13:26:59.555Z,100634.09
2023-12-30T13:29:27.636Z,100632.78
2023-12-30T13:31:57.864Z,100625.66
2023-12-30T13:34:25.534Z,100630.66
2023-12-30T13:36:58.187Z,100643.47
2023-12-30T13:39:26.176Z,100638.66
2023-12-30T13:41:54.526Z,100642.09
2023-12-30T13:44:21.623Z,100643.31
2023-12-30T13:46:53.750Z,100648.78
2023-12-30T13:49:32.632Z,100644.72
2023-12-30T13:52:02.587Z,100651.06
2023-12-30T13:54:29.847Z,100650.25
2023-12-30T13:57:12.451Z,100648.66
2023-12-30T13:59:46.386Z,100658.56
2023-12-30T14:02:19.365Z,100652.81
2023-12-30T14:04:47.854Z,100653.72
2023-12-30T14:07:22.610Z,100653.50
2023-12-30T14:10:03.052Z,100652.25
2023-12-30T14:12:37.681Z,100660.97
2023-12-30T14:15:13.280Z,100664.16
2023-12-30T14:17:43.943Z,100662.25
2023-12-30T14:20:12.331Z,100667.38
2023-12-30T14:22:42.436Z,100655.50
2023-12-30T14:25:12.907Z,100665.31
2023-12-30T14:27:41.734Z,100664.44
2023-12-30T14:30:10.092Z,100669.28
2023-12-30T14:32:37.643Z,100669.81
2023-12-30T14:35:10.944Z,100667.13
2023-12-30T14:37:45.158Z,100677.84
2023-12-30T14:40:12.481Z,100677.00
2023-12-30T14:42:39.965Z,100680.75
2023-12-30T14:45:09.825Z,100684.88
2023-12-30T14:47:39.302Z,100685.91
2023-12-30T14:50:08.633Z,100680.47
2023-12-30T14:52:39.650Z,100684.88
2023-12-30T14:55:10.164Z,100692.06
2023-12-30T14:57:43.549Z,100683.38
2023-12-30T15:00:16.567Z,100677.03
2023-12-30T15:02:45.089Z,100686.78
2023-12-30T15:05:16.350Z,100684.16
2023-12-30T15:07:51.054Z,100680.66
2023-12-30T15:10:20.418Z,100676.44
2023-12-30T15:12:48.935Z,100682.25
2023-12-30T15:15:19.200Z,100679.56
2023-12-30T15:17:49.405Z,100682.59
2023-12-30T15:20:18.517Z,100690.16
2023-12-30T15:22:45.614Z,100680.25
2023-12-30T15:25:15.365Z,100683.03
2023-12-30T15:27:46.293Z,100685.63
2023-12-30T15:30:16.320Z,100696.47
2023-12-30T15:32:45.415Z,100684.53
2023-12-30T15:35:15.216Z,100700.28
2023-12-30T15:37:45.058Z,100700.44
2023-12-30T15:40:17.181Z,100702.22
2023-12-30T15:42:47.219Z,100702.19
2023-12-30T15:45:15.407Z,100700.19
2023-12-30T15:47:45.265Z,100705.59
2023-12-30T15:50:13.280Z,100700.50
2023-12-30T15:52:43.655Z,100699.03
2023-12-30T15:55:14.772Z,100705.53
2023-12-30T15:57:41.860Z,100704.38
2023-12-30T16:00:14.635Z,100703.81
2023-12-30T16:02:42.023Z,100697.44
2023-12-30T16:05:09.393Z,100705.13
2023-12-30T16:07:36.842Z,100700.81
2023-12-30T16:10:09.303Z,100704.03
2023-12-30T16:12:39.372Z,100703.03
2023-12-30T16:15:07.721Z,100696.06
2023-12-30T16:17:40.279Z,100694.47
2023-12-30T16:20:13.736Z,100695.06
2023-12-30T16:22:41.006Z,100700.03
2023-12-30T16:25:10.983Z,100691.28
2023-12-30T16:27:38.266Z,100702.97
2023-12-30T16:30:11.536Z,100698.16
2023-12-30T16:32:38.705Z,100700.53
2023-12-30T16:35:06.509Z,100705.69
2023-12-30T16:37:35.945Z,100706.78
2023-12-30T16:40:05.417Z,100699.09
2023-12-30T16:42:32.672Z,100705.97
2023-12-30T16:45:00.504Z,100705.53
2023-12-30T16:47:28.334Z,100710.03
2023-12-30T16:49:55.637Z,100715.13
2023-12-30T16:52:22.965Z,100713.13
2023-12-30T16:54:49.958Z,100718.22
2023-12-30T16:57:17.244Z,100726.16
2023-12-30T16:59:44.352Z,100713.66
2023-12-30T17:02:13.562Z,100719.88
2023-12-30T17:04:43.398Z,100721.25
2023-12-30T17:07:10.804Z,100715.72
2023-12-30T17:09:38.280Z,100722.66
2023-12-30T17:12:13.384Z,100726.06
2023-12-30T17:14:40.457Z,100721.41
2023-12-30T17:17:08.041Z,100721.97
2023-12-30T17:19:36.135Z,100712.72
2023-12-30T17:22:05.921Z,100724.06
2023-12-30T17:24:33.606Z,100724.47
2023-12-30T17:27:05.641Z,100729.09
2023-12-30T17:29:33.762Z,100726.38
2023-12-30T17:32:01.142Z,100736.25
2023-12-30T17:34:28.264Z,100730.41
2023-12-30T17:36:55.369Z,100731.75
2023-12-30T17:39:27.664Z,100720.47
2023-12-30T17:41:54.910Z,100721.53
2023-12-30T17:44:22.114Z,100722.59
2023-12-30T17:46:52.177Z,100720.97
2023-12-30T17:49:19.230Z,100728.06
2023-12-30T17:51:48.855Z,100720.16
2023-12-30T17:54:18.293Z,100723.16
2023-12-30T17:56:45.433Z,100726.06
2023-12-30T17:59:15.295Z,100735.94
2023-12-30T18:01:45.290Z,100734.56
2023-12-30T18:04:13.071Z,100734.13
2023-12-30T18:06:42.439Z,100733.91
2023-12-30T18:09:14.145Z,100734.06
2023-12-30T18:11:44.875Z,100737.53
2023-12-30T18:14:15.329Z,100741.47
2023-12-30T18:16:43.456Z,100732.47
2023-12-30T18:19:13.532Z,100742.78
2023-12-30T18:21:40.610Z,100743.56
2023-12-30T18:24:07.779Z,100741.03
2023-12-30T18:26:39.617Z,100744.88
2023-12-30T18:29:06.662Z,100737.78
2023-12-30T18:31:33.753Z,100745.72
2023-12-30T18:34:04.031Z,100744.81
2023-12-30T18:36:31.063Z,100742.78
2023-12-30T18:39:02.769Z,100737.91
2023-12-30T18:41:30.037Z,100739.97
2023-12-30T18:44:04.974Z,100738.38
2023-12-30T18:46:34.676Z,100742.78
2023-12-30T18:49:02.234Z,100740.16
2023-12-30T18:51:39.311Z,100744.66
2023-12-30T18:54:11.530Z,100735.47
2023-12-30T18:56:38.917Z,100736.25
2023-12-30T18:59:06.135Z,100731.38
2023-12-30T19:01:38.596Z,100736.09
2023-12-30T19:04:06.636Z,100739.72
2023-12-30T19:06:33.985Z,100743.88
2023-12-30T19:09:02.754Z,100731.22
2023-12-30T19:11:34.477Z,100735.84
2023-12-30T19:14:01.587Z,100733.00
2023-12-30T19:16:28.656Z,100733.00
2023-12-30T19:18:58.183Z,100732.31
2023-12-30T19:21:28.298Z,100731.59
2023-12-30T19:24:03.247Z,100728.59
2023-12-30T19:26:30.250Z,100727.81
2023-12-30T19:28:59.813Z,100717.56
2023-12-30T19:31:29.970Z,100719.41
2023-12-30T19:33:57.361Z,100723.44
2023-12-30T19:36:29.612Z,100715.56
2023-12-30T19:38:56.968Z,100713.00
2023-12-30T19:41:24.110Z,100708.75
2023-12-30T19:43:52.073Z,100705.59
2023-12-30T19:46:19.194Z,100714.47
2023-12-30T19:48:49.964Z,100714.25
2023-12-30T19:51:17.366Z,100705.53
2023-12-30T19:53:44.410Z,100704.22
2023-12-30T19:56:11.685Z,100711.41
2023-12-30T19:58:43.289Z,100708.38
2023-12-30T20:01:20.160Z,100695.97
2023-12-30T20:03:47.727Z,100701.28
2023-12-30T20:06:18.283Z,100695.88
2023-12-30T20:08:45.562Z,100694.97
2023-12-30T20:11:13.124Z,100690.63
2023-12-30T20:13:40.848Z,100685.09
2023-12-30T20:16:12.192Z,100684.00
2023-12-30T20:18:39.591Z,100683.22
2023-12-30T20:21:11.237Z,100680.69
2023-12-30T20:23:43.973Z,100682.44
2023-12-30T20:26:11.144Z,100678.66
2023-12-30T20:28:38.241Z,100678.75
2023-12-30T20:31:06.110Z,100671.34
2023-12-30T20:33:35.875Z,100666.25
2023-12-30T20:36:05.453Z,100672.19
2023-12-30T20:38:32.745Z,100671.94
2023-12-30T20:41:01.433Z,100665.59
2023-12-30T20:43:28.557Z,100662.47
2023-12-30T20:45:58.018Z,100665.59
2023-12-30T20:48:25.186Z,100662.19
2023-12-30T20:50:54.516Z,100663.53
2023-12-30T20:53:24.394Z,100662.00
2023-12-30T20:55:52.490Z,100658.22
2023-12-30T20:58:19.724Z,100647.69
2023-12-30T21:00:49.961Z,100657.50
2023-12-30T21:03:19.279Z,100649.41
2023-12-30T21:05:49.305Z,100650.28
2023-12-30T21:08:16.544Z,100656.28
2023-12-30T21:10:43.872Z,100652.13
2023-12-30T21:13:10.992Z,100651.91
2023-12-30T21:15:40.701Z,100642.97
2023-12-30T21:18:10.687Z,100632.19
2023-12-30T21:20:40.098Z,100634.53
2023-12-30T21:23:09.847Z,100633.53
2023-12-30T21:25:37.077Z,100634.81
2023-12-30T21:28:07.977Z,100645.50
2023-12-30T21:30:35.021Z,100631.03
2023-12-30T21:33:07.750Z,100624.75
2023-12-30T21:35:37.402Z,100619.06
2023-12-30T21:38:04.676Z,100620.84
2023-12-30T21:40:36.345Z,100624.84
2023-12-30T21:43:03.951Z,100626.69
2023-12-30T21:45:31.180Z,100626.63
2023-12-30T21:47:58.407Z,100622.75
2023-12-30T21:50:29.915Z,100623.25
2023-12-30T21:52:57.210Z,100619.44
2023-12-30T21:55:24.350Z,100617.72
2023-12-30T21:57:51.385Z,100620.16
2023-12-30T22:00:18.642Z,100607.72
2023-12-30T22:02:50.849Z,100611.22
2023-12-30T22:05:20.539Z,100604.88
2023-12-30T22:07:47.660Z,100603.31
2023-12-30T22:10:15.266Z,100605.56
2023-12-30T22:12:42.317Z,100603.25
2023-12-30T22:15:12.455Z,100606.13
2023-12-30T22:17:39.425Z,100593.19
2023-12-30T22:20:08.585Z,100601.59
2023-12-30T22:22:36.293Z,100594.69
2023-12-30T22:25:06.053Z,100596.50
2023-12-30T22:27:33.194Z,100596.69
2023-12-30T22:30:02.203Z,100586.28
2023-12-30T22:32:32.698Z,100586.88
2023-12-30T22:35:13.365Z,100591.97
2023-12-30T22:37:43.459Z,100584.88
2023-12-30T22:40:11.645Z,100584.44
2023-12-30T22:42:39.362Z,100582.03
2023-12-30T22:45:08.136Z,100585.06
2023-12-30T22:47:38.441Z,100579.16
2023-12-30T22:50:09.756Z,100571.94
2023-12-30T22:52:37.542Z,100568.16
2023-12-30T22:55:07.495Z,100578.84
2023-12-30T22:57:34.983Z,100577.75
2023-12-30T23:00:02.652Z,100577.81
2023-12-30T23:02:34.408Z,100578.41
2023-12-30T23:05:01.714Z,100570.47
2023-12-30T23:07:31.486Z,100576.00
2023-12-30T23:09:58.547Z,100573.31
2023-12-30T23:12:25.917Z,100567.03
2023-12-30T23:14:53.152Z,100573.00
2023-12-30T23:17:25.713Z,100563.94
2023-12-30T23:19:52.975Z,100569.34
2023-12-30T23:22:25.118Z,100559.44
2023-12-30T23:24:52.157Z,100558.72
2023-12-30T23:27:21.554Z,100562.25
2023-12-30T23:29:51.481Z,100551.25
2023-12-30T23:32:21.238Z,100558.69
2023-12-30T23:34:52.396Z,100549.38
2023-12-30T23:37:28.365Z,100556.22
2023-12-30T23:39:55.726Z,100545.00
2023-12-30T23:42:25.178Z,100545.47
2023-12-30T23:44:52.190Z,100531.16
2023-12-30T23:47:19.373Z,100532.13
2023-12-30T23:49:46.510Z,100528.41
2023-12-30T23:52:15.982Z,100523.84
2023-12-30T23:54:50.091Z,100515.91
2023-12-30T23:57:19.473Z,100510.25
2023-12-30T23:59:48.529Z,100513.50
